sensor_id;sensor_type;location;lat;lon;timestamp;P1;durP1;ratioP1;P2;durP2;ratioP2
51746;SDS011;37825;40.088;18.302;2023-02-15T00:00:12;36.37;;;27.23;;
51746;SDS011;37825;40.088;18.302;2023-02-15T00:02:41;42.27;;;26.60;;
51746;SDS011;37825;40.088;18.302;2023-02-15T00:05:09;40.13;;;24.87;;
51746;SDS011;37825;40.088;18.302;2023-02-15T00:07:37;41.40;;;28.17;;
51746;SDS011;37825;40.088;18.302;2023-02-15T00:10:06;55.30;;;30.10;;
51746;SDS011;37825;40.088;18.302;2023-02-15T00:12:34;40.97;;;28.07;;
51746;SDS011;37825;40.088;18.302;2023-02-15T00:15:03;46.57;;;29.57;;
51746;SDS011;37825;40.088;18.302;2023-02-15T00:17:31;47.67;;;28.63;;
51746;SDS011;37825;40.088;18.302;2023-02-15T00:20:00;51.53;;;28.77;;
51746;SDS011;37825;40.088;18.302;2023-02-15T00:22:28;56.80;;;31.97;;
51746;SDS011;37825;40.088;18.302;2023-02-15T00:24:56;49.20;;;31.00;;
51746;SDS011;37825;40.088;18.302;2023-02-15T00:27:25;51.37;;;30.30;;
51746;SDS011;37825;40.088;18.302;2023-02-15T00:29:54;40.67;;;27.20;;
51746;SDS011;37825;40.088;18.302;2023-02-15T00:32:23;55.53;;;32.27;;
51746;SDS011;37825;40.088;18.302;2023-02-15T00:34:51;50.67;;;33.00;;
51746;SDS011;37825;40.088;18.302;2023-02-15T00:37:19;57.20;;;32.27;;
51746;SDS011;37825;40.088;18.302;2023-02-15T00:39:47;54.97;;;33.10;;
51746;SDS011;37825;40.088;18.302;2023-02-15T00:42:16;52.83;;;34.53;;
51746;SDS011;37825;40.088;18.302;2023-02-15T00:44:45;50.83;;;31.03;;
51746;SDS011;37825;40.088;18.302;2023-02-15T00:47:14;55.00;;;33.27;;
51746;SDS011;37825;40.088;18.302;2023-02-15T00:49:42;52.07;;;33.27;;
51746;SDS011;37825;40.088;18.302;2023-02-15T00:52:11;56.47;;;35.50;;
51746;SDS011;37825;40.088;18.302;2023-02-15T00:54:40;61.00;;;36.43;;
51746;SDS011;37825;40.088;18.302;2023-02-15T00:57:08;50.90;;;34.23;;
51746;SDS011;37825;40.088;18.302;2023-02-15T00:59:36;53.93;;;36.67;;
51746;SDS011;37825;40.088;18.302;2023-02-15T01:02:04;55.20;;;34.70;;
51746;SDS011;37825;40.088;18.302;2023-02-15T01:04:33;57.77;;;36.43;;
51746;SDS011;37825;40.088;18.302;2023-02-15T01:07:01;54.17;;;31.80;;
51746;SDS011;37825;40.088;18.302;2023-02-15T01:09:33;53.83;;;33.88;;
51746;SDS011;37825;40.088;18.302;2023-02-15T01:12:02;55.53;;;34.87;;
51746;SDS011;37825;40.088;18.302;2023-02-15T01:14:30;53.93;;;35.27;;
51746;SDS011;37825;40.088;18.302;2023-02-15T01:16:59;55.20;;;36.10;;
51746;SDS011;37825;40.088;18.302;2023-02-15T01:19:27;53.47;;;34.80;;
51746;SDS011;37825;40.088;18.302;2023-02-15T01:21:55;57.47;;;33.70;;
51746;SDS011;37825;40.088;18.302;2023-02-15T01:24:24;51.90;;;36.67;;
51746;SDS011;37825;40.088;18.302;2023-02-15T01:26:52;51.73;;;35.87;;
51746;SDS011;37825;40.088;18.302;2023-02-15T01:29:20;53.33;;;37.43;;
51746;SDS011;37825;40.088;18.302;2023-02-15T01:31:48;58.13;;;36.83;;
51746;SDS011;37825;40.088;18.302;2023-02-15T01:34:17;61.00;;;38.93;;
51746;SDS011;37825;40.088;18.302;2023-02-15T01:36:45;45.60;;;29.03;;
51746;SDS011;37825;40.088;18.302;2023-02-15T01:39:14;53.57;;;38.57;;
51746;SDS011;37825;40.088;18.302;2023-02-15T01:41:42;50.77;;;35.10;;
51746;SDS011;37825;40.088;18.302;2023-02-15T01:46:58;58.90;;;39.00;;
51746;SDS011;37825;40.088;18.302;2023-02-15T01:49:26;51.83;;;37.80;;
51746;SDS011;37825;40.088;18.302;2023-02-15T01:51:57;57.90;;;40.33;;
51746;SDS011;37825;40.088;18.302;2023-02-15T01:54:29;59.23;;;37.83;;
51746;SDS011;37825;40.088;18.302;2023-02-15T01:57:05;60.67;;;39.10;;
51746;SDS011;37825;40.088;18.302;2023-02-15T01:59:35;63.73;;;42.60;;
51746;SDS011;37825;40.088;18.302;2023-02-15T02:02:06;56.23;;;38.97;;
51746;SDS011;37825;40.088;18.302;2023-02-15T02:04:40;60.20;;;37.90;;
51746;SDS011;37825;40.088;18.302;2023-02-15T02:07:09;57.70;;;35.17;;
51746;SDS011;37825;40.088;18.302;2023-02-15T02:09:38;36.07;;;24.40;;
51746;SDS011;37825;40.088;18.302;2023-02-15T02:12:07;50.73;;;35.30;;
51746;SDS011;37825;40.088;18.302;2023-02-15T02:14:39;46.50;;;35.10;;
51746;SDS011;37825;40.088;18.302;2023-02-15T02:17:13;56.80;;;35.13;;
51746;SDS011;37825;40.088;18.302;2023-02-15T02:27:45;51.13;;;34.27;;
51746;SDS011;37825;40.088;18.302;2023-02-15T02:43:47;39.00;;;26.43;;
51746;SDS011;37825;40.088;18.302;2023-02-15T02:48:48;39.72;;;26.40;;
51746;SDS011;37825;40.088;18.302;2023-02-15T02:51:16;44.37;;;28.87;;
51746;SDS011;37825;40.088;18.302;2023-02-15T02:59:02;39.87;;;31.17;;
51746;SDS011;37825;40.088;18.302;2023-02-15T03:01:42;45.10;;;32.23;;
51746;SDS011;37825;40.088;18.302;2023-02-15T03:04:15;43.30;;;29.90;;
51746;SDS011;37825;40.088;18.302;2023-02-15T03:07:05;37.47;;;26.23;;
51746;SDS011;37825;40.088;18.302;2023-02-15T03:09:36;40.57;;;29.17;;
51746;SDS011;37825;40.088;18.302;2023-02-15T03:12:14;46.13;;;30.87;;
51746;SDS011;37825;40.088;18.302;2023-02-15T03:14:51;43.13;;;27.67;;
51746;SDS011;37825;40.088;18.302;2023-02-15T03:17:21;40.17;;;28.97;;
51746;SDS011;37825;40.088;18.302;2023-02-15T03:19:51;36.93;;;25.70;;
51746;SDS011;37825;40.088;18.302;2023-02-15T03:22:21;41.07;;;29.20;;
51746;SDS011;37825;40.088;18.302;2023-02-15T03:27:22;33.47;;;24.40;;
51746;SDS011;37825;40.088;18.302;2023-02-15T03:29:53;38.05;;;24.75;;
51746;SDS011;37825;40.088;18.302;2023-02-15T03:32:23;38.70;;;27.13;;
51746;SDS011;37825;40.088;18.302;2023-02-15T03:34:53;35.03;;;27.23;;
51746;SDS011;37825;40.088;18.302;2023-02-15T03:37:25;39.70;;;27.00;;
51746;SDS011;37825;40.088;18.302;2023-02-15T03:40:02;41.07;;;28.77;;
51746;SDS011;37825;40.088;18.302;2023-02-15T03:43:02;38.43;;;28.00;;
51746;SDS011;37825;40.088;18.302;2023-02-15T03:45:36;38.50;;;28.67;;
51746;SDS011;37825;40.088;18.302;2023-02-15T03:48:06;35.63;;;28.27;;
51746;SDS011;37825;40.088;18.302;2023-02-15T03:50:35;40.77;;;29.87;;
51746;SDS011;37825;40.088;18.302;2023-02-15T03:53:23;37.53;;;27.90;;
51746;SDS011;37825;40.088;18.302;2023-02-15T03:55:55;47.93;;;28.17;;
51746;SDS011;37825;40.088;18.302;2023-02-15T03:58:23;42.33;;;29.52;;
51746;SDS011;37825;40.088;18.302;2023-02-15T04:04:20;35.40;;;27.07;;
51746;SDS011;37825;40.088;18.302;2023-02-15T04:06:51;40.27;;;28.77;;
51746;SDS011;37825;40.088;18.302;2023-02-15T04:09:19;40.27;;;27.50;;
51746;SDS011;37825;40.088;18.302;2023-02-15T04:12:06;40.20;;;28.73;;
51746;SDS011;37825;40.088;18.302;2023-02-15T04:14:34;40.77;;;29.53;;
51746;SDS011;37825;40.088;18.302;2023-02-15T04:17:22;45.20;;;29.00;;
51746;SDS011;37825;40.088;18.302;2023-02-15T04:19:50;37.33;;;27.90;;
51746;SDS011;37825;40.088;18.302;2023-02-15T04:22:37;41.60;;;29.83;;
51746;SDS011;37825;40.088;18.302;2023-02-15T04:25:24;39.83;;;30.93;;
51746;SDS011;37825;40.088;18.302;2023-02-15T04:27:54;42.67;;;29.53;;
51746;SDS011;37825;40.088;18.302;2023-02-15T04:30:23;48.60;;;32.27;;
51746;SDS011;37825;40.088;18.302;2023-02-15T04:32:53;44.63;;;30.90;;
51746;SDS011;37825;40.088;18.302;2023-02-15T04:35:21;45.03;;;32.40;;
51746;SDS011;37825;40.088;18.302;2023-02-15T04:37:49;47.00;;;31.37;;
51746;SDS011;37825;40.088;18.302;2023-02-15T04:40:18;45.83;;;31.00;;
51746;SDS011;37825;40.088;18.302;2023-02-15T04:42:49;45.80;;;29.20;;
51746;SDS011;37825;40.088;18.302;2023-02-15T04:45:17;48.15;;;32.40;;
51746;SDS011;37825;40.088;18.302;2023-02-15T04:47:46;46.03;;;32.17;;
51746;SDS011;37825;40.088;18.302;2023-02-15T04:50:14;47.20;;;31.03;;
51746;SDS011;37825;40.088;18.302;2023-02-15T04:52:42;46.87;;;33.00;;
51746;SDS011;37825;40.088;18.302;2023-02-15T04:55:10;51.73;;;32.27;;
51746;SDS011;37825;40.088;18.302;2023-02-15T04:57:39;44.30;;;31.50;;
51746;SDS011;37825;40.088;18.302;2023-02-15T05:00:07;43.57;;;29.30;;
51746;SDS011;37825;40.088;18.302;2023-02-15T05:02:36;45.70;;;32.10;;
51746;SDS011;37825;40.088;18.302;2023-02-15T05:05:05;41.53;;;31.30;;
51746;SDS011;37825;40.088;18.302;2023-02-15T05:10:04;43.57;;;30.13;;
51746;SDS011;37825;40.088;18.302;2023-02-15T05:12:32;44.67;;;31.33;;
51746;SDS011;37825;40.088;18.302;2023-02-15T05:15:02;47.70;;;30.23;;
51746;SDS011;37825;40.088;18.302;2023-02-15T05:17:30;46.17;;;30.77;;
51746;SDS011;37825;40.088;18.302;2023-02-15T05:19:59;43.43;;;29.90;;
51746;SDS011;37825;40.088;18.302;2023-02-15T05:22:27;41.67;;;32.63;;
51746;SDS011;37825;40.088;18.302;2023-02-15T05:24:55;46.47;;;30.77;;
51746;SDS011;37825;40.088;18.302;2023-02-15T05:27:42;44.57;;;31.90;;
51746;SDS011;37825;40.088;18.302;2023-02-15T05:30:31;48.97;;;32.50;;
51746;SDS011;37825;40.088;18.302;2023-02-15T05:32:59;48.90;;;33.77;;
51746;SDS011;37825;40.088;18.302;2023-02-15T05:35:28;45.17;;;33.20;;
51746;SDS011;37825;40.088;18.302;2023-02-15T05:37:56;44.67;;;32.30;;
51746;SDS011;37825;40.088;18.302;2023-02-15T05:40:25;52.63;;;36.93;;
51746;SDS011;37825;40.088;18.302;2023-02-15T05:42:53;53.80;;;34.60;;
51746;SDS011;37825;40.088;18.302;2023-02-15T05:45:21;51.80;;;36.63;;
51746;SDS011;37825;40.088;18.302;2023-02-15T05:47:49;49.17;;;34.90;;
51746;SDS011;37825;40.088;18.302;2023-02-15T05:50:18;48.33;;;35.43;;
51746;SDS011;37825;40.088;18.302;2023-02-15T05:52:47;50.70;;;37.57;;
51746;SDS011;37825;40.088;18.302;2023-02-15T05:55:18;55.90;;;40.17;;
51746;SDS011;37825;40.088;18.302;2023-02-15T05:57:48;48.27;;;35.53;;
51746;SDS011;37825;40.088;18.302;2023-02-15T06:00:16;59.13;;;35.27;;
51746;SDS011;37825;40.088;18.302;2023-02-15T06:02:44;57.43;;;37.13;;
51746;SDS011;37825;40.088;18.302;2023-02-15T06:05:12;50.13;;;35.07;;
51746;SDS011;37825;40.088;18.302;2023-02-15T06:07:44;49.50;;;34.83;;
51746;SDS011;37825;40.088;18.302;2023-02-15T06:10:13;51.97;;;35.00;;
51746;SDS011;37825;40.088;18.302;2023-02-15T06:12:41;45.37;;;35.23;;
51746;SDS011;37825;40.088;18.302;2023-02-15T06:15:09;48.90;;;33.10;;
51746;SDS011;37825;40.088;18.302;2023-02-15T06:17:37;49.67;;;34.63;;
51746;SDS011;37825;40.088;18.302;2023-02-15T06:20:09;55.40;;;37.50;;
51746;SDS011;37825;40.088;18.302;2023-02-15T06:22:38;49.10;;;35.13;;
51746;SDS011;37825;40.088;18.302;2023-02-15T06:25:06;47.60;;;34.80;;
51746;SDS011;37825;40.088;18.302;2023-02-15T06:27:37;58.13;;;34.13;;
51746;SDS011;37825;40.088;18.302;2023-02-15T06:30:09;53.72;;;34.47;;
51746;SDS011;37825;40.088;18.302;2023-02-15T06:32:38;58.17;;;37.37;;
51746;SDS011;37825;40.088;18.302;2023-02-15T06:35:07;54.63;;;35.67;;
51746;SDS011;37825;40.088;18.302;2023-02-15T06:37:37;55.30;;;36.27;;
51746;SDS011;37825;40.088;18.302;2023-02-15T06:40:05;54.67;;;33.87;;
51746;SDS011;37825;40.088;18.302;2023-02-15T06:42:35;50.97;;;32.47;;
51746;SDS011;37825;40.088;18.302;2023-02-15T06:45:04;47.27;;;32.00;;
51746;SDS011;37825;40.088;18.302;2023-02-15T06:47:34;44.90;;;33.20;;
51746;SDS011;37825;40.088;18.302;2023-02-15T06:50:05;44.90;;;31.37;;
51746;SDS011;37825;40.088;18.302;2023-02-15T06:52:33;40.55;;;29.23;;
51746;SDS011;37825;40.088;18.302;2023-02-15T06:55:02;44.93;;;30.60;;
51746;SDS011;37825;40.088;18.302;2023-02-15T06:57:30;42.93;;;30.13;;
51746;SDS011;37825;40.088;18.302;2023-02-15T06:59:59;40.97;;;30.13;;
51746;SDS011;37825;40.088;18.302;2023-02-15T07:02:28;41.37;;;31.53;;
51746;SDS011;37825;40.088;18.302;2023-02-15T07:04:56;42.97;;;31.13;;
51746;SDS011;37825;40.088;18.302;2023-02-15T07:07:24;38.83;;;30.03;;
51746;SDS011;37825;40.088;18.302;2023-02-15T07:09:53;39.73;;;30.43;;
51746;SDS011;37825;40.088;18.302;2023-02-15T07:12:21;38.07;;;30.00;;
51746;SDS011;37825;40.088;18.302;2023-02-15T07:15:08;43.17;;;30.63;;
51746;SDS011;37825;40.088;18.302;2023-02-15T07:17:37;40.63;;;31.07;;
51746;SDS011;37825;40.088;18.302;2023-02-15T07:20:06;40.57;;;29.97;;
51746;SDS011;37825;40.088;18.302;2023-02-15T07:22:35;40.60;;;31.97;;
51746;SDS011;37825;40.088;18.302;2023-02-15T07:25:04;37.97;;;27.40;;
51746;SDS011;37825;40.088;18.302;2023-02-15T07:27:33;40.80;;;32.67;;
51746;SDS011;37825;40.088;18.302;2023-02-15T07:30:01;52.63;;;36.40;;
51746;SDS011;37825;40.088;18.302;2023-02-15T07:32:30;46.83;;;31.87;;
51746;SDS011;37825;40.088;18.302;2023-02-15T07:34:59;40.87;;;29.13;;
51746;SDS011;37825;40.088;18.302;2023-02-15T07:37:28;44.57;;;28.10;;
51746;SDS011;37825;40.088;18.302;2023-02-15T07:39:56;35.43;;;25.83;;
51746;SDS011;37825;40.088;18.302;2023-02-15T07:42:24;36.63;;;28.13;;
51746;SDS011;37825;40.088;18.302;2023-02-15T07:44:53;33.83;;;26.03;;
51746;SDS011;37825;40.088;18.302;2023-02-15T07:47:21;28.60;;;23.43;;
51746;SDS011;37825;40.088;18.302;2023-02-15T07:49:49;31.70;;;23.43;;
51746;SDS011;37825;40.088;18.302;2023-02-15T07:52:18;31.93;;;22.73;;
51746;SDS011;37825;40.088;18.302;2023-02-15T07:54:46;26.83;;;18.07;;
51746;SDS011;37825;40.088;18.302;2023-02-15T07:57:14;30.67;;;23.80;;
51746;SDS011;37825;40.088;18.302;2023-02-15T07:59:42;33.30;;;23.70;;
51746;SDS011;37825;40.088;18.302;2023-02-15T08:02:10;31.98;;;20.95;;
51746;SDS011;37825;40.088;18.302;2023-02-15T08:04:38;22.15;;;16.90;;
51746;SDS011;37825;40.088;18.302;2023-02-15T08:07:07;27.95;;;19.63;;
51746;SDS011;37825;40.088;18.302;2023-02-15T08:09:35;31.85;;;22.23;;
51746;SDS011;37825;40.088;18.302;2023-02-15T08:12:03;22.13;;;13.30;;
51746;SDS011;37825;40.088;18.302;2023-02-15T08:14:32;25.80;;;16.95;;
51746;SDS011;37825;40.088;18.302;2023-02-15T08:17:00;25.55;;;16.13;;
51746;SDS011;37825;40.088;18.302;2023-02-15T08:19:32;31.17;;;21.70;;
51746;SDS011;37825;40.088;18.302;2023-02-15T08:22:02;34.22;;;21.48;;
51746;SDS011;37825;40.088;18.302;2023-02-15T08:24:32;34.88;;;22.67;;
51746;SDS011;37825;40.088;18.302;2023-02-15T08:27:00;25.45;;;18.58;;
51746;SDS011;37825;40.088;18.302;2023-02-15T08:29:32;30.25;;;21.17;;
51746;SDS011;37825;40.088;18.302;2023-02-15T08:32:02;28.77;;;19.33;;
51746;SDS011;37825;40.088;18.302;2023-02-15T08:34:33;25.23;;;19.02;;
51746;SDS011;37825;40.088;18.302;2023-02-15T08:37:01;29.10;;;18.08;;
51746;SDS011;37825;40.088;18.302;2023-02-15T08:39:30;28.48;;;20.13;;
51746;SDS011;37825;40.088;18.302;2023-02-15T08:41:58;37.42;;;22.90;;
51746;SDS011;37825;40.088;18.302;2023-02-15T08:44:26;28.52;;;21.27;;
51746;SDS011;37825;40.088;18.302;2023-02-15T08:46:55;26.02;;;18.42;;
51746;SDS011;37825;40.088;18.302;2023-02-15T08:49:29;24.77;;;16.63;;
51746;SDS011;37825;40.088;18.302;2023-02-15T08:51:58;30.65;;;20.55;;
51746;SDS011;37825;40.088;18.302;2023-02-15T08:54:27;28.17;;;19.08;;
51746;SDS011;37825;40.088;18.302;2023-02-15T08:56:55;20.17;;;14.20;;
51746;SDS011;37825;40.088;18.302;2023-02-15T08:59:23;22.75;;;15.10;;
51746;SDS011;37825;40.088;18.302;2023-02-15T09:01:53;20.25;;;12.15;;
51746;SDS011;37825;40.088;18.302;2023-02-15T09:04:22;24.60;;;15.02;;
51746;SDS011;37825;40.088;18.302;2023-02-15T09:06:51;14.63;;;10.50;;
51746;SDS011;37825;40.088;18.302;2023-02-15T09:09:19;22.73;;;14.25;;
51746;SDS011;37825;40.088;18.302;2023-02-15T09:11:49;17.80;;;12.00;;
51746;SDS011;37825;40.088;18.302;2023-02-15T09:14:23;26.25;;;15.60;;
51746;SDS011;37825;40.088;18.302;2023-02-15T09:16:53;20.88;;;12.98;;
51746;SDS011;37825;40.088;18.302;2023-02-15T09:19:22;21.48;;;12.80;;
51746;SDS011;37825;40.088;18.302;2023-02-15T09:21:51;16.25;;;11.52;;
51746;SDS011;37825;40.088;18.302;2023-02-15T09:24:19;19.25;;;10.55;;
51746;SDS011;37825;40.088;18.302;2023-02-15T09:26:48;18.52;;;10.20;;
51746;SDS011;37825;40.088;18.302;2023-02-15T09:29:16;13.88;;;10.35;;
51746;SDS011;37825;40.088;18.302;2023-02-15T09:31:46;17.55;;;11.07;;
51746;SDS011;37825;40.088;18.302;2023-02-15T09:34:16;14.60;;;10.55;;
51746;SDS011;37825;40.088;18.302;2023-02-15T09:36:45;15.30;;;9.05;;
51746;SDS011;37825;40.088;18.302;2023-02-15T09:39:14;12.82;;;8.95;;
51746;SDS011;37825;40.088;18.302;2023-02-15T09:41:57;15.75;;;10.98;;
51746;SDS011;37825;40.088;18.302;2023-02-15T09:44:33;14.18;;;11.85;;
51746;SDS011;37825;40.088;18.302;2023-02-15T09:52:27;12.85;;;8.95;;
51746;SDS011;37825;40.088;18.302;2023-02-15T09:57:29;14.32;;;11.20;;
51746;SDS011;37825;40.088;18.302;2023-02-15T10:00:08;12.18;;;9.05;;
51746;SDS011;37825;40.088;18.302;2023-02-15T10:05:21;11.63;;;7.80;;
51746;SDS011;37825;40.088;18.302;2023-02-15T10:21:52;11.32;;;9.13;;
51746;SDS011;37825;40.088;18.302;2023-02-15T10:24:29;14.07;;;11.07;;
51746;SDS011;37825;40.088;18.302;2023-02-15T10:27:02;30.25;;;24.88;;
51746;SDS011;37825;40.088;18.302;2023-02-15T10:29:35;13.15;;;9.70;;
51746;SDS011;37825;40.088;18.302;2023-02-15T10:34:39;10.45;;;7.63;;
51746;SDS011;37825;40.088;18.302;2023-02-15T10:45:18;13.73;;;10.65;;
51746;SDS011;37825;40.088;18.302;2023-02-15T10:47:47;18.42;;;12.90;;
51746;SDS011;37825;40.088;18.302;2023-02-15T10:55:25;14.18;;;12.68;;
51746;SDS011;37825;40.088;18.302;2023-02-15T11:03:06;11.57;;;8.30;;
51746;SDS011;37825;40.088;18.302;2023-02-15T11:10:48;11.23;;;8.30;;
51746;SDS011;37825;40.088;18.302;2023-02-15T11:13:19;10.73;;;8.13;;
51746;SDS011;37825;40.088;18.302;2023-02-15T11:15:53;10.68;;;8.88;;
51746;SDS011;37825;40.088;18.302;2023-02-15T11:18:25;8.43;;;6.50;;
51746;SDS011;37825;40.088;18.302;2023-02-15T11:20:58;8.25;;;7.20;;
51746;SDS011;37825;40.088;18.302;2023-02-15T11:23:27;36.28;;;32.63;;
51746;SDS011;37825;40.088;18.302;2023-02-15T11:25:57;7.95;;;6.75;;
51746;SDS011;37825;40.088;18.302;2023-02-15T11:28:29;10.45;;;6.80;;
51746;SDS011;37825;40.088;18.302;2023-02-15T11:30:58;10.68;;;7.60;;
51746;SDS011;37825;40.088;18.302;2023-02-15T11:33:35;16.58;;;13.65;;
51746;SDS011;37825;40.088;18.302;2023-02-15T11:36:27;10.70;;;9.57;;
51746;SDS011;37825;40.088;18.302;2023-02-15T11:39:10;17.80;;;11.90;;
51746;SDS011;37825;40.088;18.302;2023-02-15T11:41:50;7.63;;;5.90;;
51746;SDS011;37825;40.088;18.302;2023-02-15T11:46:50;11.43;;;10.30;;
51746;SDS011;37825;40.088;18.302;2023-02-15T11:51:50;10.95;;;8.48;;
51746;SDS011;37825;40.088;18.302;2023-02-15T11:54:21;8.68;;;6.45;;
51746;SDS011;37825;40.088;18.302;2023-02-15T11:59:21;8.68;;;7.00;;
51746;SDS011;37825;40.088;18.302;2023-02-15T12:01:52;11.07;;;9.23;;
51746;SDS011;37825;40.088;18.302;2023-02-15T12:04:30;10.40;;;8.48;;
51746;SDS011;37825;40.088;18.302;2023-02-15T12:12:19;10.38;;;7.35;;
51746;SDS011;37825;40.088;18.302;2023-02-15T12:14:49;8.07;;;6.60;;
51746;SDS011;37825;40.088;18.302;2023-02-15T12:17:20;8.88;;;7.57;;
51746;SDS011;37825;40.088;18.302;2023-02-15T12:19:49;9.75;;;6.53;;
51746;SDS011;37825;40.088;18.302;2023-02-15T12:24:48;15.95;;;12.60;;
51746;SDS011;37825;40.088;18.302;2023-02-15T12:29:46;11.63;;;9.52;;
51746;SDS011;37825;40.088;18.302;2023-02-15T12:32:28;8.95;;;7.55;;
51746;SDS011;37825;40.088;18.302;2023-02-15T12:35:06;9.45;;;7.88;;
51746;SDS011;37825;40.088;18.302;2023-02-15T12:37:36;8.85;;;7.97;;
51746;SDS011;37825;40.088;18.302;2023-02-15T12:43:24;10.38;;;9.10;;
51746;SDS011;37825;40.088;18.302;2023-02-15T12:45:52;10.40;;;9.30;;
51746;SDS011;37825;40.088;18.302;2023-02-15T12:48:21;13.10;;;11.45;;
51746;SDS011;37825;40.088;18.302;2023-02-15T12:50:49;14.88;;;12.50;;
51746;SDS011;37825;40.088;18.302;2023-02-15T12:53:22;19.60;;;17.05;;
51746;SDS011;37825;40.088;18.302;2023-02-15T12:55:55;11.70;;;8.63;;
51746;SDS011;37825;40.088;18.302;2023-02-15T12:58:24;12.25;;;10.75;;
51746;SDS011;37825;40.088;18.302;2023-02-15T13:03:30;11.60;;;8.65;;
51746;SDS011;37825;40.088;18.302;2023-02-15T13:05:58;10.68;;;8.07;;
51746;SDS011;37825;40.088;18.302;2023-02-15T13:08:29;12.10;;;9.98;;
51746;SDS011;37825;40.088;18.302;2023-02-15T13:11:11;13.30;;;11.50;;
51746;SDS011;37825;40.088;18.302;2023-02-15T13:16:09;12.20;;;9.07;;
51746;SDS011;37825;40.088;18.302;2023-02-15T13:18:40;11.02;;;9.85;;
51746;SDS011;37825;40.088;18.302;2023-02-15T13:21:14;7.82;;;7.03;;
51746;SDS011;37825;40.088;18.302;2023-02-15T13:23:45;9.38;;;7.85;;
51746;SDS011;37825;40.088;18.302;2023-02-15T13:26:16;10.82;;;8.60;;
51746;SDS011;37825;40.088;18.302;2023-02-15T13:28:47;12.88;;;10.98;;
51746;SDS011;37825;40.088;18.302;2023-02-15T13:31:22;10.60;;;9.60;;
51746;SDS011;37825;40.088;18.302;2023-02-15T13:33:55;8.88;;;7.82;;
51746;SDS011;37825;40.088;18.302;2023-02-15T13:36:29;10.82;;;8.77;;
51746;SDS011;37825;40.088;18.302;2023-02-15T13:49:50;9.27;;;7.72;;
51746;SDS011;37825;40.088;18.302;2023-02-15T13:52:21;12.57;;;8.75;;
51746;SDS011;37825;40.088;18.302;2023-02-15T13:54:57;11.32;;;9.68;;
51746;SDS011;37825;40.088;18.302;2023-02-15T14:00:47;9.75;;;8.75;;
51746;SDS011;37825;40.088;18.302;2023-02-15T14:02:52;9.07;;;8.18;;
51746;SDS011;37825;40.088;18.302;2023-02-15T14:10:38;9.13;;;8.23;;
51746;SDS011;37825;40.088;18.302;2023-02-15T14:15:58;10.65;;;8.63;;
51746;SDS011;37825;40.088;18.302;2023-02-15T14:21:00;16.42;;;12.15;;
51746;SDS011;37825;40.088;18.302;2023-02-15T14:23:36;16.67;;;11.95;;
51746;SDS011;37825;40.088;18.302;2023-02-15T14:31:34;13.48;;;12.23;;
51746;SDS011;37825;40.088;18.302;2023-02-15T14:34:03;12.20;;;8.68;;
51746;SDS011;37825;40.088;18.302;2023-02-15T14:36:32;10.63;;;9.52;;
51746;SDS011;37825;40.088;18.302;2023-02-15T14:47:52;13.80;;;11.75;;
51746;SDS011;37825;40.088;18.302;2023-02-15T14:56:02;10.15;;;8.27;;
51746;SDS011;37825;40.088;18.302;2023-02-15T14:58:34;10.55;;;8.48;;
51746;SDS011;37825;40.088;18.302;2023-02-15T15:01:04;8.57;;;7.57;;
51746;SDS011;37825;40.088;18.302;2023-02-15T15:03:35;10.70;;;9.65;;
51746;SDS011;37825;40.088;18.302;2023-02-15T15:06:04;10.52;;;9.20;;
51746;SDS011;37825;40.088;18.302;2023-02-15T15:08:34;13.48;;;11.93;;
51746;SDS011;37825;40.088;18.302;2023-02-15T15:14:08;12.02;;;10.90;;
51746;SDS011;37825;40.088;18.302;2023-02-15T15:19:09;12.75;;;10.82;;
51746;SDS011;37825;40.088;18.302;2023-02-15T15:24:45;14.35;;;12.85;;
51746;SDS011;37825;40.088;18.302;2023-02-15T15:30:00;11.95;;;9.13;;
51746;SDS011;37825;40.088;18.302;2023-02-15T15:32:30;15.35;;;13.25;;
51746;SDS011;37825;40.088;18.302;2023-02-15T15:42:49;17.00;;;12.75;;
51746;SDS011;37825;40.088;18.302;2023-02-15T15:50:38;17.33;;;13.77;;
51746;SDS011;37825;40.088;18.302;2023-02-15T15:53:13;20.38;;;14.02;;
51746;SDS011;37825;40.088;18.302;2023-02-15T15:55:43;22.58;;;17.52;;
51746;SDS011;37825;40.088;18.302;2023-02-15T15:58:15;21.55;;;18.30;;
51746;SDS011;37825;40.088;18.302;2023-02-15T16:03:31;18.45;;;15.70;;
51746;SDS011;37825;40.088;18.302;2023-02-15T16:06:00;20.95;;;16.55;;
51746;SDS011;37825;40.088;18.302;2023-02-15T16:08:30;17.70;;;15.75;;
51746;SDS011;37825;40.088;18.302;2023-02-15T16:11:00;22.70;;;18.23;;
51746;SDS011;37825;40.088;18.302;2023-02-15T16:13:30;25.73;;;18.83;;
51746;SDS011;37825;40.088;18.302;2023-02-15T16:15:58;22.73;;;19.17;;
51746;SDS011;37825;40.088;18.302;2023-02-15T16:18:26;29.80;;;26.52;;
51746;SDS011;37825;40.088;18.302;2023-02-15T16:20:57;32.60;;;26.20;;
51746;SDS011;37825;40.088;18.302;2023-02-15T16:28:48;23.98;;;20.95;;
51746;SDS011;37825;40.088;18.302;2023-02-15T16:31:19;20.38;;;17.60;;
51746;SDS011;37825;40.088;18.302;2023-02-15T16:33:52;23.20;;;20.30;;
51746;SDS011;37825;40.088;18.302;2023-02-15T16:36:21;31.38;;;27.30;;
51746;SDS011;37825;40.088;18.302;2023-02-15T16:41:23;36.50;;;30.10;;
51746;SDS011;37825;40.088;18.302;2023-02-15T16:43:53;45.45;;;36.88;;
51746;SDS011;37825;40.088;18.302;2023-02-15T16:46:26;46.10;;;41.10;;
51746;SDS011;37825;40.088;18.302;2023-02-15T16:48:56;25.05;;;21.30;;
51746;SDS011;37825;40.088;18.302;2023-02-15T16:51:27;45.00;;;38.53;;
51746;SDS011;37825;40.088;18.302;2023-02-15T16:53:56;26.00;;;20.80;;
51746;SDS011;37825;40.088;18.302;2023-02-15T16:56:26;31.87;;;23.93;;
51746;SDS011;37825;40.088;18.302;2023-02-15T16:58:55;55.80;;;46.57;;
51746;SDS011;37825;40.088;18.302;2023-02-15T17:01:26;62.10;;;51.40;;
51746;SDS011;37825;40.088;18.302;2023-02-15T17:06:43;56.13;;;47.77;;
51746;SDS011;37825;40.088;18.302;2023-02-15T17:09:26;81.97;;;66.20;;
51746;SDS011;37825;40.088;18.302;2023-02-15T17:11:54;46.10;;;40.07;;
51746;SDS011;37825;40.088;18.302;2023-02-15T17:14:31;39.70;;;33.07;;
51746;SDS011;37825;40.088;18.302;2023-02-15T17:17:00;44.50;;;32.27;;
51746;SDS011;37825;40.088;18.302;2023-02-15T17:19:30;39.07;;;32.80;;
51746;SDS011;37825;40.088;18.302;2023-02-15T17:22:03;46.67;;;38.67;;
51746;SDS011;37825;40.088;18.302;2023-02-15T17:24:35;47.20;;;40.00;;
51746;SDS011;37825;40.088;18.302;2023-02-15T17:27:15;49.73;;;39.90;;
51746;SDS011;37825;40.088;18.302;2023-02-15T17:29:49;49.87;;;40.93;;
51746;SDS011;37825;40.088;18.302;2023-02-15T17:32:22;50.23;;;44.20;;
51746;SDS011;37825;40.088;18.302;2023-02-15T17:42:46;51.83;;;43.33;;
51746;SDS011;37825;40.088;18.302;2023-02-15T17:45:15;57.60;;;47.07;;
51746;SDS011;37825;40.088;18.302;2023-02-15T17:47:44;56.47;;;45.93;;
51746;SDS011;37825;40.088;18.302;2023-02-15T17:50:23;52.90;;;45.57;;
51746;SDS011;37825;40.088;18.302;2023-02-15T17:52:52;54.40;;;44.63;;
51746;SDS011;37825;40.088;18.302;2023-02-15T17:55:21;57.30;;;47.23;;
51746;SDS011;37825;40.088;18.302;2023-02-15T17:58:06;61.03;;;51.67;;